sensor_id;sensor_type;location;lat;lon;timestamp;P1;durP1;ratioP1;P2;durP2;ratioP2
47535;SDS011;33278;50.826;9.030;2022-08-25T00:01:38;2.53;;;2.33;;
47535;SDS011;33278;50.826;9.030;2022-08-25T00:04:12;3.08;;;2.63;;
47535;SDS011;33278;50.826;9.030;2022-08-25T00:06:45;2.63;;;2.42;;
47535;SDS011;33278;50.826;9.030;2022-08-25T00:09:17;2.50;;;2.30;;
47535;SDS011;33278;50.826;9.030;2022-08-25T00:11:50;2.78;;;2.28;;
47535;SDS011;33278;50.826;9.030;2022-08-25T00:14:23;2.35;;;2.15;;
47535;SDS011;33278;50.826;9.030;2022-08-25T00:16:56;3.78;;;2.28;;
47535;SDS011;33278;50.826;9.030;2022-08-25T00:19:28;2.75;;;2.47;;
47535;SDS011;33278;50.826;9.030;2022-08-25T00:22:06;3.95;;;2.70;;
47535;SDS011;33278;50.826;9.030;2022-08-25T00:24:36;2.78;;;2.40;;
47535;SDS011;33278;50.826;9.030;2022-08-25T00:27:07;2.95;;;2.42;;
47535;SDS011;33278;50.826;9.030;2022-08-25T00:29:37;2.60;;;2.30;;
47535;SDS011;33278;50.826;9.030;2022-08-25T00:32:08;2.63;;;2.40;;
47535;SDS011;33278;50.826;9.030;2022-08-25T00:34:38;4.47;;;2.40;;
47535;SDS011;33278;50.826;9.030;2022-08-25T00:37:08;2.70;;;2.30;;
47535;SDS011;33278;50.826;9.030;2022-08-25T00:39:39;3.13;;;2.38;;
47535;SDS011;33278;50.826;9.030;2022-08-25T00:42:09;2.85;;;2.50;;
47535;SDS011;33278;50.826;9.030;2022-08-25T00:44:40;3.20;;;2.33;;
47535;SDS011;33278;50.826;9.030;2022-08-25T00:47:12;2.33;;;2.13;;
47535;SDS011;33278;50.826;9.030;2022-08-25T00:49:53;2.97;;;2.47;;
47535;SDS011;33278;50.826;9.030;2022-08-25T00:52:28;2.60;;;2.40;;
47535;SDS011;33278;50.826;9.030;2022-08-25T00:55:05;3.20;;;2.45;;
47535;SDS011;33278;50.826;9.030;2022-08-25T00:57:38;4.07;;;2.65;;
47535;SDS011;33278;50.826;9.030;2022-08-25T01:00:20;2.63;;;2.30;;
47535;SDS011;33278;50.826;9.030;2022-08-25T01:02:55;3.45;;;2.70;;
47535;SDS011;33278;50.826;9.030;2022-08-25T01:12:19;3.30;;;2.55;;
47535;SDS011;33278;50.826;9.030;2022-08-25T01:14:51;2.65;;;2.45;;
47535;SDS011;33278;50.826;9.030;2022-08-25T01:17:22;3.67;;;2.50;;
47535;SDS011;33278;50.826;9.030;2022-08-25T01:19:56;2.60;;;2.40;;
47535;SDS011;33278;50.826;9.030;2022-08-25T01:22:26;2.67;;;2.15;;
47535;SDS011;33278;50.826;9.030;2022-08-25T01:25:04;4.32;;;2.72;;
47535;SDS011;33278;50.826;9.030;2022-08-25T01:27:46;2.88;;;2.45;;
47535;SDS011;33278;50.826;9.030;2022-08-25T01:33:19;2.80;;;2.60;;
47535;SDS011;33278;50.826;9.030;2022-08-25T01:35:49;2.80;;;2.60;;
47535;SDS011;33278;50.826;9.030;2022-08-25T01:38:19;2.80;;;2.55;;
47535;SDS011;33278;50.826;9.030;2022-08-25T01:40:50;3.22;;;2.60;;
47535;SDS011;33278;50.826;9.030;2022-08-25T01:43:25;2.75;;;2.55;;
47535;SDS011;33278;50.826;9.030;2022-08-25T01:46:04;4.38;;;2.75;;
47535;SDS011;33278;50.826;9.030;2022-08-25T01:48:34;3.05;;;2.78;;
47535;SDS011;33278;50.826;9.030;2022-08-25T01:51:05;3.22;;;2.72;;
47535;SDS011;33278;50.826;9.030;2022-08-25T01:53:35;4.50;;;2.72;;
47535;SDS011;33278;50.826;9.030;2022-08-25T01:56:07;2.70;;;2.50;;
47535;SDS011;33278;50.826;9.030;2022-08-25T01:58:40;2.83;;;2.58;;
47535;SDS011;33278;50.826;9.030;2022-08-25T02:01:13;2.53;;;2.33;;
47535;SDS011;33278;50.826;9.030;2022-08-25T02:03:47;2.65;;;2.38;;
47535;SDS011;33278;50.826;9.030;2022-08-25T02:06:21;4.30;;;2.78;;
47535;SDS011;33278;50.826;9.030;2022-08-25T02:08:55;4.20;;;2.60;;
47535;SDS011;33278;50.826;9.030;2022-08-25T02:11:30;3.80;;;3.03;;
47535;SDS011;33278;50.826;9.030;2022-08-25T02:14:01;2.72;;;2.50;;
47535;SDS011;33278;50.826;9.030;2022-08-25T02:16:34;3.47;;;2.85;;
47535;SDS011;33278;50.826;9.030;2022-08-25T02:19:07;8.60;;;3.25;;
47535;SDS011;33278;50.826;9.030;2022-08-25T02:21:39;2.97;;;2.67;;
47535;SDS011;33278;50.826;9.030;2022-08-25T02:24:10;5.72;;;3.13;;
47535;SDS011;33278;50.826;9.030;2022-08-25T02:26:41;3.72;;;2.63;;
47535;SDS011;33278;50.826;9.030;2022-08-25T02:29:11;3.65;;;2.85;;
47535;SDS011;33278;50.826;9.030;2022-08-25T02:31:43;8.13;;;3.10;;
47535;SDS011;33278;50.826;9.030;2022-08-25T02:34:14;3.85;;;2.90;;
47535;SDS011;33278;50.826;9.030;2022-08-25T02:36:44;8.45;;;2.90;;
47535;SDS011;33278;50.826;9.030;2022-08-25T02:39:14;5.53;;;3.15;;
47535;SDS011;33278;50.826;9.030;2022-08-25T02:41:45;4.43;;;3.03;;
47535;SDS011;33278;50.826;9.030;2022-08-25T02:44:15;6.65;;;3.33;;
47535;SDS011;33278;50.826;9.030;2022-08-25T02:46:45;7.53;;;3.70;;
47535;SDS011;33278;50.826;9.030;2022-08-25T02:49:16;4.00;;;3.35;;
47535;SDS011;33278;50.826;9.030;2022-08-25T02:51:47;4.13;;;3.28;;
47535;SDS011;33278;50.826;9.030;2022-08-25T02:54:18;3.70;;;3.22;;
47535;SDS011;33278;50.826;9.030;2022-08-25T02:56:48;7.07;;;3.10;;
47535;SDS011;33278;50.826;9.030;2022-08-25T02:59:18;5.28;;;3.25;;
47535;SDS011;33278;50.826;9.030;2022-08-25T03:01:49;4.55;;;3.10;;
47535;SDS011;33278;50.826;9.030;2022-08-25T03:04:20;6.43;;;3.35;;
47535;SDS011;33278;50.826;9.030;2022-08-25T03:06:50;4.97;;;3.25;;
47535;SDS011;33278;50.826;9.030;2022-08-25T03:09:20;4.70;;;3.85;;
47535;SDS011;33278;50.826;9.030;2022-08-25T03:11:52;3.50;;;2.90;;
47535;SDS011;33278;50.826;9.030;2022-08-25T03:14:22;5.53;;;3.17;;
47535;SDS011;33278;50.826;9.030;2022-08-25T03:16:52;2.83;;;2.63;;
47535;SDS011;33278;50.826;9.030;2022-08-25T03:19:23;4.45;;;3.28;;
47535;SDS011;33278;50.826;9.030;2022-08-25T03:21:53;3.50;;;3.08;;
47535;SDS011;33278;50.826;9.030;2022-08-25T03:24:25;3.70;;;3.40;;
47535;SDS011;33278;50.826;9.030;2022-08-25T03:26:56;3.85;;;3.30;;
47535;SDS011;33278;50.826;9.030;2022-08-25T03:29:27;3.25;;;3.00;;
47535;SDS011;33278;50.826;9.030;2022-08-25T03:32:01;3.15;;;2.85;;
47535;SDS011;33278;50.826;9.030;2022-08-25T03:34:32;4.45;;;3.38;;
47535;SDS011;33278;50.826;9.030;2022-08-25T03:37:02;3.97;;;3.20;;
47535;SDS011;33278;50.826;9.030;2022-08-25T03:39:34;3.28;;;2.97;;
47535;SDS011;33278;50.826;9.030;2022-08-25T03:42:04;5.07;;;3.53;;
47535;SDS011;33278;50.826;9.030;2022-08-25T03:44:35;3.47;;;3.17;;
47535;SDS011;33278;50.826;9.030;2022-08-25T03:47:05;4.55;;;3.58;;
47535;SDS011;33278;50.826;9.030;2022-08-25T03:49:36;6.40;;;3.40;;
47535;SDS011;33278;50.826;9.030;2022-08-25T03:52:06;3.13;;;2.83;;
47535;SDS011;33278;50.826;9.030;2022-08-25T03:54:36;3.63;;;3.13;;
47535;SDS011;33278;50.826;9.030;2022-08-25T03:57:06;3.92;;;3.63;;
47535;SDS011;33278;50.826;9.030;2022-08-25T03:59:38;4.43;;;2.92;;
47535;SDS011;33278;50.826;9.030;2022-08-25T04:02:09;4.15;;;3.20;;
47535;SDS011;33278;50.826;9.030;2022-08-25T04:04:39;3.10;;;2.83;;
47535;SDS011;33278;50.826;9.030;2022-08-25T04:07:09;3.75;;;3.40;;
47535;SDS011;33278;50.826;9.030;2022-08-25T04:09:40;3.88;;;3.28;;
47535;SDS011;33278;50.826;9.030;2022-08-25T04:12:10;3.40;;;3.10;;
47535;SDS011;33278;50.826;9.030;2022-08-25T04:14:40;5.03;;;3.33;;
47535;SDS011;33278;50.826;9.030;2022-08-25T04:17:11;3.83;;;3.42;;
47535;SDS011;33278;50.826;9.030;2022-08-25T04:19:42;5.03;;;3.50;;
47535;SDS011;33278;50.826;9.030;2022-08-25T04:22:12;4.90;;;3.63;;
47535;SDS011;33278;50.826;9.030;2022-08-25T04:24:42;3.90;;;2.97;;
47535;SDS011;33278;50.826;9.030;2022-08-25T04:27:13;3.75;;;3.40;;
47535;SDS011;33278;50.826;9.030;2022-08-25T04:29:43;4.85;;;3.78;;
47535;SDS011;33278;50.826;9.030;2022-08-25T04:32:13;3.63;;;3.33;;
47535;SDS011;33278;50.826;9.030;2022-08-25T04:34:44;3.85;;;3.30;;
47535;SDS011;33278;50.826;9.030;2022-08-25T04:37:14;4.82;;;3.83;;
47535;SDS011;33278;50.826;9.030;2022-08-25T04:39:45;3.38;;;3.08;;
47535;SDS011;33278;50.826;9.030;2022-08-25T04:42:15;3.28;;;2.97;;
47535;SDS011;33278;50.826;9.030;2022-08-25T04:44:45;3.72;;;2.92;;
47535;SDS011;33278;50.826;9.030;2022-08-25T04:47:15;4.38;;;3.50;;
47535;SDS011;33278;50.826;9.030;2022-08-25T04:49:46;4.75;;;3.50;;
47535;SDS011;33278;50.826;9.030;2022-08-25T04:52:16;5.25;;;3.55;;
47535;SDS011;33278;50.826;9.030;2022-08-25T04:54:47;4.07;;;3.78;;
47535;SDS011;33278;50.826;9.030;2022-08-25T04:57:17;4.72;;;3.58;;
47535;SDS011;33278;50.826;9.030;2022-08-25T04:59:47;5.03;;;3.53;;
47535;SDS011;33278;50.826;9.030;2022-08-25T05:02:18;7.75;;;4.00;;
47535;SDS011;33278;50.826;9.030;2022-08-25T05:04:48;6.20;;;3.83;;
47535;SDS011;33278;50.826;9.030;2022-08-25T05:07:18;15.48;;;3.90;;
47535;SDS011;33278;50.826;9.030;2022-08-25T05:09:49;6.15;;;4.10;;
47535;SDS011;33278;50.826;9.030;2022-08-25T05:12:19;6.10;;;3.72;;
47535;SDS011;33278;50.826;9.030;2022-08-25T05:14:52;8.10;;;4.50;;
47535;SDS011;33278;50.826;9.030;2022-08-25T05:17:23;6.93;;;3.70;;
47535;SDS011;33278;50.826;9.030;2022-08-25T05:19:53;5.93;;;3.53;;
47535;SDS011;33278;50.826;9.030;2022-08-25T05:22:23;4.95;;;4.10;;
47535;SDS011;33278;50.826;9.030;2022-08-25T05:24:53;7.55;;;3.90;;
47535;SDS011;33278;50.826;9.030;2022-08-25T05:27:24;5.93;;;4.15;;
47535;SDS011;33278;50.826;9.030;2022-08-25T05:29:54;4.95;;;3.60;;
47535;SDS011;33278;50.826;9.030;2022-08-25T05:32:24;4.80;;;3.97;;
47535;SDS011;33278;50.826;9.030;2022-08-25T05:34:55;4.28;;;3.65;;
47535;SDS011;33278;50.826;9.030;2022-08-25T05:37:25;5.35;;;3.63;;
47535;SDS011;33278;50.826;9.030;2022-08-25T05:39:55;5.55;;;3.65;;
47535;SDS011;33278;50.826;9.030;2022-08-25T05:42:26;6.07;;;4.20;;
47535;SDS011;33278;50.826;9.030;2022-08-25T05:44:57;5.05;;;3.50;;
47535;SDS011;33278;50.826;9.030;2022-08-25T05:47:27;4.40;;;3.90;;
47535;SDS011;33278;50.826;9.030;2022-08-25T05:49:57;4.93;;;3.97;;
47535;SDS011;33278;50.826;9.030;2022-08-25T05:52:28;5.63;;;3.92;;
47535;SDS011;33278;50.826;9.030;2022-08-25T05:54:58;5.43;;;3.75;;
47535;SDS011;33278;50.826;9.030;2022-08-25T05:57:29;8.13;;;4.25;;
47535;SDS011;33278;50.826;9.030;2022-08-25T05:59:59;3.97;;;3.45;;
47535;SDS011;33278;50.826;9.030;2022-08-25T06:02:29;3.92;;;3.53;;
47535;SDS011;33278;50.826;9.030;2022-08-25T06:05:21;7.78;;;4.05;;
47535;SDS011;33278;50.826;9.030;2022-08-25T06:07:52;6.32;;;3.85;;
47535;SDS011;33278;50.826;9.030;2022-08-25T06:10:22;5.25;;;3.50;;
47535;SDS011;33278;50.826;9.030;2022-08-25T06:12:52;6.03;;;3.95;;
47535;SDS011;33278;50.826;9.030;2022-08-25T06:15:23;5.72;;;3.60;;
47535;SDS011;33278;50.826;9.030;2022-08-25T06:17:54;4.30;;;3.85;;
47535;SDS011;33278;50.826;9.030;2022-08-25T06:20:30;6.15;;;3.95;;
47535;SDS011;33278;50.826;9.030;2022-08-25T06:23:01;3.88;;;3.58;;
47535;SDS011;33278;50.826;9.030;2022-08-25T06:25:31;6.05;;;4.00;;
47535;SDS011;33278;50.826;9.030;2022-08-25T06:28:02;3.80;;;3.50;;
47535;SDS011;33278;50.826;9.030;2022-08-25T06:30:33;4.65;;;4.03;;
47535;SDS011;33278;50.826;9.030;2022-08-25T06:33:03;3.72;;;3.30;;
47535;SDS011;33278;50.826;9.030;2022-08-25T06:35:33;5.05;;;3.70;;
47535;SDS011;33278;50.826;9.030;2022-08-25T06:38:04;4.43;;;4.03;;
47535;SDS011;33278;50.826;9.030;2022-08-25T06:40:34;5.88;;;4.22;;
47535;SDS011;33278;50.826;9.030;2022-08-25T06:43:04;5.40;;;4.05;;
47535;SDS011;33278;50.826;9.030;2022-08-25T06:45:37;11.10;;;3.83;;
47535;SDS011;33278;50.826;9.030;2022-08-25T06:48:08;5.47;;;4.07;;
47535;SDS011;33278;50.826;9.030;2022-08-25T06:50:39;5.22;;;4.13;;
47535;SDS011;33278;50.826;9.030;2022-08-25T06:53:10;8.63;;;4.03;;
47535;SDS011;33278;50.826;9.030;2022-08-25T06:55:40;4.20;;;3.85;;
47535;SDS011;33278;50.826;9.030;2022-08-25T06:58:11;8.70;;;3.70;;
47535;SDS011;33278;50.826;9.030;2022-08-25T07:00:41;4.35;;;3.95;;
47535;SDS011;33278;50.826;9.030;2022-08-25T07:03:12;3.58;;;3.28;;
47535;SDS011;33278;50.826;9.030;2022-08-25T07:05:49;5.20;;;3.97;;
47535;SDS011;33278;50.826;9.030;2022-08-25T07:08:23;4.45;;;3.53;;
47535;SDS011;33278;50.826;9.030;2022-08-25T07:10:54;4.55;;;4.00;;
47535;SDS011;33278;50.826;9.030;2022-08-25T07:13:24;4.55;;;4.15;;
47535;SDS011;33278;50.826;9.030;2022-08-25T07:15:54;6.45;;;4.20;;
47535;SDS011;33278;50.826;9.030;2022-08-25T07:18:25;4.35;;;3.95;;
47535;SDS011;33278;50.826;9.030;2022-08-25T07:20:56;4.35;;;3.95;;
47535;SDS011;33278;50.826;9.030;2022-08-25T07:23:27;6.80;;;4.50;;
47535;SDS011;33278;50.826;9.030;2022-08-25T07:26:06;4.90;;;3.63;;
47535;SDS011;33278;50.826;9.030;2022-08-25T07:28:44;3.92;;;3.63;;
47535;SDS011;33278;50.826;9.030;2022-08-25T07:31:15;4.78;;;3.95;;
47535;SDS011;33278;50.826;9.030;2022-08-25T07:33:45;4.82;;;4.32;;
47535;SDS011;33278;50.826;9.030;2022-08-25T07:36:34;7.82;;;4.57;;
47535;SDS011;33278;50.826;9.030;2022-08-25T07:39:05;5.18;;;4.22;;
47535;SDS011;33278;50.826;9.030;2022-08-25T07:41:36;5.35;;;4.65;;
47535;SDS011;33278;50.826;9.030;2022-08-25T07:44:09;4.45;;;4.05;;
47535;SDS011;33278;50.826;9.030;2022-08-25T07:46:40;7.53;;;4.28;;
47535;SDS011;33278;50.826;9.030;2022-08-25T07:49:11;4.80;;;3.97;;
47535;SDS011;33278;50.826;9.030;2022-08-25T07:51:41;4.60;;;4.20;;
47535;SDS011;33278;50.826;9.030;2022-08-25T07:54:12;4.72;;;4.35;;
47535;SDS011;33278;50.826;9.030;2022-08-25T07:56:42;7.75;;;4.75;;
47535;SDS011;33278;50.826;9.030;2022-08-25T07:59:12;5.43;;;4.00;;
47535;SDS011;33278;50.826;9.030;2022-08-25T08:01:43;5.22;;;4.53;;
47535;SDS011;33278;50.826;9.030;2022-08-25T08:04:14;5.00;;;4.55;;
47535;SDS011;33278;50.826;9.030;2022-08-25T08:06:44;4.30;;;4.00;;
47535;SDS011;33278;50.826;9.030;2022-08-25T08:09:14;4.65;;;3.78;;
47535;SDS011;33278;50.826;9.030;2022-08-25T08:11:45;4.88;;;3.65;;
47535;SDS011;33278;50.826;9.030;2022-08-25T08:14:16;4.35;;;3.95;;
47535;SDS011;33278;50.826;9.030;2022-08-25T08:16:46;4.47;;;4.07;;
47535;SDS011;33278;50.826;9.030;2022-08-25T08:19:17;4.78;;;4.38;;
47535;SDS011;33278;50.826;9.030;2022-08-25T08:21:47;4.65;;;4.22;;
47535;SDS011;33278;50.826;9.030;2022-08-25T08:24:19;6.22;;;4.03;;
47535;SDS011;33278;50.826;9.030;2022-08-25T08:26:49;4.32;;;3.75;;
47535;SDS011;33278;50.826;9.030;2022-08-25T08:29:20;4.38;;;3.83;;
47535;SDS011;33278;50.826;9.030;2022-08-25T08:31:51;3.85;;;3.55;;
47535;SDS011;33278;50.826;9.030;2022-08-25T08:34:22;4.43;;;4.00;;
47535;SDS011;33278;50.826;9.030;2022-08-25T08:36:52;6.50;;;4.45;;
47535;SDS011;33278;50.826;9.030;2022-08-25T08:39:23;6.47;;;4.18;;
47535;SDS011;33278;50.826;9.030;2022-08-25T08:55:47;4.55;;;3.85;;
47535;SDS011;33278;50.826;9.030;2022-08-25T08:58:21;4.43;;;4.10;;
47535;SDS011;33278;50.826;9.030;2022-08-25T09:01:00;4.55;;;4.00;;
47535;SDS011;33278;50.826;9.030;2022-08-25T09:03:39;4.38;;;4.07;;
47535;SDS011;33278;50.826;9.030;2022-08-25T09:06:19;4.60;;;4.20;;
47535;SDS011;33278;50.826;9.030;2022-08-25T09:08:56;4.45;;;4.00;;
47535;SDS011;33278;50.826;9.030;2022-08-25T09:16:41;4.32;;;4.00;;
47535;SDS011;33278;50.826;9.030;2022-08-25T09:19:43;4.43;;;4.03;;
47535;SDS011;33278;50.826;9.030;2022-08-25T09:28:49;4.85;;;4.35;;
47535;SDS011;33278;50.826;9.030;2022-08-25T09:31:41;4.20;;;3.90;;
47535;SDS011;33278;50.826;9.030;2022-08-25T09:34:13;4.03;;;3.72;;
47535;SDS011;33278;50.826;9.030;2022-08-25T09:36:47;5.40;;;3.70;;
47535;SDS011;33278;50.826;9.030;2022-08-25T09:39:21;4.45;;;4.15;;
47535;SDS011;33278;50.826;9.030;2022-08-25T09:41:53;4.57;;;4.18;;
47535;SDS011;33278;50.826;9.030;2022-08-25T09:44:30;4.20;;;3.80;;
47535;SDS011;33278;50.826;9.030;2022-08-25T09:47:07;3.67;;;3.38;;
47535;SDS011;33278;50.826;9.030;2022-08-25T09:49:43;4.13;;;3.83;;
47535;SDS011;33278;50.826;9.030;2022-08-25T09:54:55;5.03;;;3.97;;
47535;SDS011;33278;50.826;9.030;2022-08-25T09:57:48;4.10;;;3.80;;
47535;SDS011;33278;50.826;9.030;2022-08-25T10:00:22;4.03;;;3.63;;
47535;SDS011;33278;50.826;9.030;2022-08-25T10:03:12;4.70;;;3.75;;
47535;SDS011;33278;50.826;9.030;2022-08-25T10:08:29;4.25;;;3.85;;
47535;SDS011;33278;50.826;9.030;2022-08-25T10:11:04;4.10;;;3.70;;
47535;SDS011;33278;50.826;9.030;2022-08-25T10:13:43;4.35;;;4.05;;
47535;SDS011;33278;50.826;9.030;2022-08-25T10:16:21;4.45;;;4.05;;
47535;SDS011;33278;50.826;9.030;2022-08-25T10:19:05;4.20;;;3.80;;
47535;SDS011;33278;50.826;9.030;2022-08-25T10:21:41;4.28;;;3.80;;
47535;SDS011;33278;50.826;9.030;2022-08-25T10:24:12;4.63;;;4.03;;
47535;SDS011;33278;50.826;9.030;2022-08-25T10:35:19;4.43;;;4.10;;
47535;SDS011;33278;50.826;9.030;2022-08-25T10:40:52;4.40;;;4.10;;
47535;SDS011;33278;50.826;9.030;2022-08-25T10:43:30;4.78;;;4.10;;
47535;SDS011;33278;50.826;9.030;2022-08-25T10:46:09;3.95;;;3.65;;
47535;SDS011;33278;50.826;9.030;2022-08-25T10:49:02;4.10;;;3.80;;
47535;SDS011;33278;50.826;9.030;2022-08-25T10:51:37;4.15;;;3.85;;
47535;SDS011;33278;50.826;9.030;2022-08-25T10:54:31;4.10;;;3.53;;
47535;SDS011;33278;50.826;9.030;2022-08-25T10:57:43;5.43;;;3.83;;
47535;SDS011;33278;50.826;9.030;2022-08-25T11:00:17;4.28;;;3.88;;
47535;SDS011;33278;50.826;9.030;2022-08-25T11:11:45;4.07;;;3.78;;
47535;SDS011;33278;50.826;9.030;2022-08-25T11:14:22;3.78;;;3.47;;
47535;SDS011;33278;50.826;9.030;2022-08-25T11:19:42;4.43;;;4.03;;
47535;SDS011;33278;50.826;9.030;2022-08-25T11:22:22;4.45;;;4.15;;
47535;SDS011;33278;50.826;9.030;2022-08-25T11:27:59;4.55;;;4.15;;
47535;SDS011;33278;50.826;9.030;2022-08-25T11:30:39;4.22;;;3.92;;
47535;SDS011;33278;50.826;9.030;2022-08-25T11:33:11;4.57;;;4.18;;
47535;SDS011;33278;50.826;9.030;2022-08-25T11:35:50;4.43;;;4.03;;
47535;SDS011;33278;50.826;9.030;2022-08-25T11:38:30;4.40;;;4.10;;
47535;SDS011;33278;50.826;9.030;2022-08-25T11:55:06;4.47;;;4.07;;
47535;SDS011;33278;50.826;9.030;2022-08-25T11:58:14;3.80;;;3.53;;
47535;SDS011;33278;50.826;9.030;2022-08-25T12:00:48;4.18;;;3.88;;
47535;SDS011;33278;50.826;9.030;2022-08-25T12:11:49;4.40;;;4.00;;
47535;SDS011;33278;50.826;9.030;2022-08-25T12:19:28;4.13;;;3.83;;
47535;SDS011;33278;50.826;9.030;2022-08-25T12:36:05;4.18;;;3.88;;
47535;SDS011;33278;50.826;9.030;2022-08-25T12:38:42;3.85;;;3.55;;
47535;SDS011;33278;50.826;9.030;2022-08-25T12:41:17;4.38;;;3.97;;
47535;SDS011;33278;50.826;9.030;2022-08-25T12:43:51;3.33;;;3.13;;
47535;SDS011;33278;50.826;9.030;2022-08-25T12:46:37;4.45;;;4.05;;
47535;SDS011;33278;50.826;9.030;2022-08-25T12:49:27;3.92;;;3.63;;
47535;SDS011;33278;50.826;9.030;2022-08-25T12:52:06;4.00;;;3.70;;
47535;SDS011;33278;50.826;9.030;2022-08-25T12:54:48;3.85;;;3.55;;
47535;SDS011;33278;50.826;9.030;2022-08-25T13:00:19;4.28;;;3.88;;
47535;SDS011;33278;50.826;9.030;2022-08-25T13:11:47;3.70;;;3.45;;
47535;SDS011;33278;50.826;9.030;2022-08-25T13:14:42;4.22;;;3.92;;
47535;SDS011;33278;50.826;9.030;2022-08-25T13:17:23;3.33;;;3.13;;
47535;SDS011;33278;50.826;9.030;2022-08-25T13:23:00;3.42;;;3.22;;
47535;SDS011;33278;50.826;9.030;2022-08-25T13:25:30;4.00;;;3.70;;
47535;SDS011;33278;50.826;9.030;2022-08-25T13:28:03;3.85;;;3.55;;
47535;SDS011;33278;50.826;9.030;2022-08-25T13:30:35;3.75;;;3.47;;
47535;SDS011;33278;50.826;9.030;2022-08-25T13:33:19;3.15;;;2.95;;
47535;SDS011;33278;50.826;9.030;2022-08-25T13:35:52;3.65;;;3.35;;
47535;SDS011;33278;50.826;9.030;2022-08-25T13:38:44;4.07;;;3.78;;
47535;SDS011;33278;50.826;9.030;2022-08-25T13:41:18;4.15;;;3.85;;
47535;SDS011;33278;50.826;9.030;2022-08-25T13:43:51;4.13;;;3.83;;
47535;SDS011;33278;50.826;9.030;2022-08-25T13:46:23;3.85;;;3.55;;
47535;SDS011;33278;50.826;9.030;2022-08-25T13:49:04;3.58;;;3.28;;
47535;SDS011;33278;50.826;9.030;2022-08-25T13:51:36;3.83;;;3.53;;
47535;SDS011;33278;50.826;9.030;2022-08-25T13:54:20;3.60;;;3.30;;
47535;SDS011;33278;50.826;9.030;2022-08-25T13:59:48;4.15;;;3.85;;
47535;SDS011;33278;50.826;9.030;2022-08-25T14:08:31;4.00;;;3.70;;
47535;SDS011;33278;50.826;9.030;2022-08-25T14:11:05;3.78;;;3.47;;
47535;SDS011;33278;50.826;9.030;2022-08-25T14:13:42;3.53;;;3.22;;
47535;SDS011;33278;50.826;9.030;2022-08-25T14:16:23;3.67;;;3.38;;
47535;SDS011;33278;50.826;9.030;2022-08-25T14:18:54;4.00;;;3.70;;
47535;SDS011;33278;50.826;9.030;2022-08-25T14:23:58;3.88;;;3.58;;
47535;SDS011;33278;50.826;9.030;2022-08-25T14:26:28;4.18;;;3.80;;
47535;SDS011;33278;50.826;9.030;2022-08-25T14:28:59;3.50;;;3.20;;
47535;SDS011;33278;50.826;9.030;2022-08-25T14:31:31;3.75;;;3.45;;
47535;SDS011;33278;50.826;9.030;2022-08-25T14:34:06;3.90;;;3.60;;
47535;SDS011;33278;50.826;9.030;2022-08-25T14:36:38;3.67;;;3.38;;
47535;SDS011;33278;50.826;9.030;2022-08-25T14:39:09;3.45;;;3.15;;
47535;SDS011;33278;50.826;9.030;2022-08-25T14:41:41;3.30;;;3.10;;
47535;SDS011;33278;50.826;9.030;2022-08-25T14:44:12;4.93;;;3.97;;
47535;SDS011;33278;50.826;9.030;2022-08-25T14:46:45;4.43;;;4.13;;
47535;SDS011;33278;50.826;9.030;2022-08-25T14:49:24;3.90;;;3.55;;
47535;SDS011;33278;50.826;9.030;2022-08-25T14:54:59;4.07;;;3.78;;
47535;SDS011;33278;50.826;9.030;2022-08-25T14:57:29;4.03;;;3.72;;
47535;SDS011;33278;50.826;9.030;2022-08-25T15:00:00;4.13;;;3.75;;
47535;SDS011;33278;50.826;9.030;2022-08-25T15:02:31;3.50;;;3.20;;
47535;SDS011;33278;50.826;9.030;2022-08-25T15:05:07;3.00;;;2.80;;
47535;SDS011;33278;50.826;9.030;2022-08-25T15:07:40;3.35;;;3.05;;
47535;SDS011;33278;50.826;9.030;2022-08-25T15:10:29;4.10;;;3.80;;
47535;SDS011;33278;50.826;9.030;2022-08-25T15:13:00;3.65;;;3.35;;
47535;SDS011;33278;50.826;9.030;2022-08-25T15:15:30;3.75;;;3.45;;
47535;SDS011;33278;50.826;9.030;2022-08-25T15:18:02;3.88;;;3.58;;
47535;SDS011;33278;50.826;9.030;2022-08-25T15:20:32;3.72;;;3.42;;
47535;SDS011;33278;50.826;9.030;2022-08-25T15:23:03;3.60;;;3.30;;
47535;SDS011;33278;50.826;9.030;2022-08-25T15:25:34;3.58;;;3.28;;
47535;SDS011;33278;50.826;9.030;2022-08-25T15:28:05;3.17;;;2.97;;
47535;SDS011;33278;50.826;9.030;2022-08-25T15:30:37;3.50;;;3.20;;
47535;SDS011;33278;50.826;9.030;2022-08-25T15:33:08;3.58;;;3.28;;
47535;SDS011;33278;50.826;9.030;2022-08-25T15:35:38;3.55;;;3.25;;
47535;SDS011;33278;50.826;9.030;2022-08-25T15:38:09;3.13;;;2.92;;
47535;SDS011;33278;50.826;9.030;2022-08-25T15:40:39;3.38;;;3.08;;
47535;SDS011;33278;50.826;9.030;2022-08-25T15:43:10;3.42;;;3.15;;
47535;SDS011;33278;50.826;9.030;2022-08-25T15:45:40;3.55;;;3.28;;
47535;SDS011;33278;50.826;9.030;2022-08-25T15:48:10;3.72;;;3.42;;
47535;SDS011;33278;50.826;9.030;2022-08-25T15:50:41;3.45;;;3.15;;
47535;SDS011;33278;50.826;9.030;2022-08-25T15:53:11;3.40;;;3.20;;
47535;SDS011;33278;50.826;9.030;2022-08-25T15:55:41;4.80;;;3.20;;
47535;SDS011;33278;50.826;9.030;2022-08-25T15:58:11;9.52;;;3.75;;
47535;SDS011;33278;50.826;9.030;2022-08-25T16:00:42;10.55;;;3.60;;
47535;SDS011;33278;50.826;9.030;2022-08-25T16:03:14;3.95;;;3.47;;
47535;SDS011;33278;50.826;9.030;2022-08-25T16:05:44;6.05;;;3.42;;
47535;SDS011;33278;50.826;9.030;2022-08-25T16:08:14;3.88;;;3.55;;
47535;SDS011;33278;50.826;9.030;2022-08-25T16:10:45;5.22;;;4.05;;
47535;SDS011;33278;50.826;9.030;2022-08-25T16:13:16;4.00;;;3.70;;
47535;SDS011;33278;50.826;9.030;2022-08-25T16:15:46;3.40;;;3.10;;
47535;SDS011;33278;50.826;9.030;2022-08-25T16:18:18;4.78;;;4.00;;
47535;SDS011;33278;50.826;9.030;2022-08-25T16:20:48;3.35;;;3.05;;
47535;SDS011;33278;50.826;9.030;2022-08-25T16:23:19;4.13;;;3.60;;
47535;SDS011;33278;50.826;9.030;2022-08-25T16:25:50;4.25;;;3.80;;
47535;SDS011;33278;50.826;9.030;2022-08-25T16:28:20;5.00;;;3.97;;
47535;SDS011;33278;50.826;9.030;2022-08-25T16:30:50;3.63;;;3.33;;
47535;SDS011;33278;50.826;9.030;2022-08-25T16:33:21;7.93;;;3.47;;
47535;SDS011;33278;50.826;9.030;2022-08-25T16:35:51;3.50;;;3.20;;
47535;SDS011;33278;50.826;9.030;2022-08-25T16:38:21;3.17;;;2.97;;
47535;SDS011;33278;50.826;9.030;2022-08-25T16:40:52;3.50;;;3.20;;
47535;SDS011;33278;50.826;9.030;2022-08-25T16:43:22;7.43;;;3.80;;
47535;SDS011;33278;50.826;9.030;2022-08-25T16:45:56;6.28;;;3.38;;
47535;SDS011;33278;50.826;9.030;2022-08-25T16:48:31;8.30;;;3.88;;
47535;SDS011;33278;50.826;9.030;2022-08-25T16:51:10;4.07;;;3.67;;
47535;SDS011;33278;50.826;9.030;2022-08-25T16:53:43;6.18;;;3.92;;
47535;SDS011;33278;50.826;9.030;2022-08-25T16:56:33;6.20;;;3.50;;
47535;SDS011;33278;50.826;9.030;2022-08-25T16:59:04;5.90;;;3.90;;
47535;SDS011;33278;50.826;9.030;2022-08-25T17:01:36;4.00;;;3.40;;
47535;SDS011;33278;50.826;9.030;2022-08-25T17:04:08;3.83;;;3.08;;
47535;SDS011;33278;50.826;9.030;2022-08-25T17:06:41;7.45;;;3.88;;
47535;SDS011;33278;50.826;9.030;2022-08-25T17:09:12;3.22;;;2.92;;
47535;SDS011;33278;50.826;9.030;2022-08-25T17:11:45;4.32;;;3.33;;
47535;SDS011;33278;50.826;9.030;2022-08-25T17:14:17;5.30;;;3.40;;
47535;SDS011;33278;50.826;9.030;2022-08-25T17:16:48;3.20;;;2.95;;
47535;SDS011;33278;50.826;9.030;2022-08-25T17:19:19;4.00;;;3.70;;
47535;SDS011;33278;50.826;9.030;2022-08-25T17:21:51;3.42;;;3.13;;
47535;SDS011;33278;50.826;9.030;2022-08-25T17:24:23;3.47;;;3.17;;
47535;SDS011;33278;50.826;9.030;2022-08-25T17:26:54;3.33;;;3.03;;
47535;SDS011;33278;50.826;9.030;2022-08-25T17:29:24;3.75;;;3.38;;
47535;SDS011;33278;50.826;9.030;2022-08-25T17:31:54;4.43;;;3.35;;
47535;SDS011;33278;50.826;9.030;2022-08-25T17:34:25;4.00;;;3.60;;
47535;SDS011;33278;50.826;9.030;2022-08-25T17:36:56;3.55;;;3.25;;
47535;SDS011;33278;50.826;9.030;2022-08-25T17:39:27;4.82;;;3.40;;
47535;SDS011;33278;50.826;9.030;2022-08-25T17:41:57;3.45;;;3.15;;